Time;durP1;ratioP1;P1;durP2;ratioP2;P2;SDS_P1;SDS_P2;PMS_P1;PMS_P2;Temp;Humidity;BMP_temperature;BMP_pressure;BME280_temperature;BME280_humidity;BME280_pressure;Samples;Min_cycle;Max_cycle;Signal;HPM_P1;HPM_P2
2023/08/27 00:05:14;;;;;;;5.53;2.92;;;;;;;16.63;100.00;97365.84;18285137;32;20468;-56
2023/08/27 00:15:17;;;;;;;2.80;2.50;;;;;;;16.71;100.00;97334.25;18297973;32;20054;-56
2023/08/27 00:25:19;;;;;;;3.28;2.70;;;;;;;16.68;100.00;97315.78;18297815;32;20050;-56
2023/08/27 00:35:22;;;;;;;4.70;3.03;;;;;;;16.66;100.00;97312.56;18283090;32;20054;-55
2023/08/27 00:45:26;;;;;;;2.53;2.25;;;;;;;16.68;100.00;97291.22;18297081;32;20061;-57
2023/08/27 00:55:29;;;;;;;2.92;2.40;;;;;;;16.66;100.00;97268.88;18282806;32;20065;-56
2023/08/27 01:05:31;;;;;;;5.68;2.30;;;;;;;16.45;100.00;97304.97;18281648;32;20046;-56
2023/08/27 01:15:35;;;;;;;3.20;1.93;;;;;;;16.46;100.00;97301.13;18295545;32;20088;-57
2023/08/27 01:25:47;;;;;;;3.42;2.03;;;;;;;16.48;100.00;97312.50;18294975;32;20434;-56
2023/08/27 01:35:49;;;;;;;3.83;2.28;;;;;;;16.56;100.00;97268.06;18294067;32;20073;-57
2023/08/27 01:45:52;;;;;;;3.22;2.22;;;;;;;16.57;100.00;97275.13;18294205;32;20107;-57
2023/08/27 01:55:55;;;;;;;3.53;2.15;;;;;;;16.52;100.00;97348.97;18280227;32;20073;-56
2023/08/27 02:05:58;;;;;;;3.45;2.37;;;;;;;16.57;100.00;97320.75;18293344;32;20055;-57
2023/08/27 02:16:00;;;;;;;4.25;2.25;;;;;;;16.57;100.00;97307.88;18280101;32;20058;-55
2023/08/27 02:26:03;;;;;;;1.87;1.60;;;;;;;16.53;100.00;97281.56;18303676;32;20058;-57
2023/08/27 02:36:05;;;;;;;3.75;1.83;;;;;;;16.35;100.00;97297.06;18289276;32;20106;-56
2023/08/27 02:46:08;;;;;;;3.08;2.37;;;;;;;16.31;100.00;97268.81;18303110;32;20072;-57
2023/08/27 02:56:11;;;;;;;4.65;2.35;;;;;;;16.37;100.00;97221.16;18288974;32;20098;-56
2023/08/27 03:06:13;;;;;;;3.35;1.75;;;;;;;16.27;100.00;97309.56;18301744;32;20585;-57
2023/08/27 03:16:17;;;;;;;5.72;1.77;;;;;;;16.35;100.00;97283.41;18301261;32;20441;-57
2023/08/27 03:26:20;;;;;;;2.83;1.37;;;;;;;16.36;100.00;97244.94;18300394;32;20066;-56
2023/08/27 03:36:23;;;;;;;4.47;1.83;;;;;;;16.22;100.00;97246.97;18300377;32;20062;-56
2023/08/27 03:46:28;;;;;;;1.85;1.65;;;;;;;16.24;100.00;97218.25;18299531;32;20054;-56
2023/08/27 03:56:31;;;;;;;2.85;1.67;;;;;;;16.22;100.00;97238.78;18285565;32;20106;-56
2023/08/27 04:06:34;;;;;;;2.90;1.50;;;;;;;16.21;100.00;97245.38;18298874;32;20402;-57
2023/08/27 04:16:38;;;;;;;3.90;1.73;;;;;;;16.22;100.00;97255.94;18298009;32;20058;-56
2023/08/27 04:26:42;;;;;;;4.60;1.50;;;;;;;16.15;100.00;97263.00;18297836;32;20114;-56
2023/08/27 04:36:46;;;;;;;6.40;1.67;;;;;;;16.09;100.00;97249.50;18296831;32;20050;-56
2023/08/27 04:46:50;;;;;;;3.42;1.40;;;;;;;16.13;100.00;97254.31;18296520;32;20494;-56
2023/08/27 04:56:53;;;;;;;3.63;1.43;;;;;;;16.16;100.00;97253.72;18282900;32;20054;-56
2023/08/27 05:06:57;;;;;;;4.13;1.63;;;;;;;15.99;100.00;97252.53;18295557;32;20099;-56
2023/08/27 05:17:01;;;;;;;8.05;1.95;;;;;;;16.07;100.00;97253.66;18295210;32;20142;-56
2023/08/27 05:27:04;;;;;;;4.65;1.65;;;;;;;16.14;100.00;97261.41;18268610;32;20038;-56
2023/08/27 05:37:08;;;;;;;4.20;1.67;;;;;;;16.20;100.00;97255.47;18280382;32;20042;-56
2023/08/27 05:47:12;;;;;;;5.78;1.65;;;;;;;16.22;100.00;97236.06;18294017;32;20106;-56
2023/08/27 05:57:17;;;;;;;3.37;1.92;;;;;;;16.27;100.00;97223.06;18302871;32;20076;-56
2023/08/27 06:07:20;;;;;;;;;;;;;;;16.27;100.00;97225.81;18305164;32;20349;-56
2023/08/27 06:17:23;;;;;;;3.28;1.45;;;;;;;16.23;100.00;97238.47;18291023;32;19954;-56
2023/08/27 06:27:28;;;;;;;3.62;1.90;;;;;;;16.38;100.00;97206.41;18303741;32;20099;-56
2023/08/27 06:37:31;;;;;;;4.93;1.80;;;;;;;16.33;100.00;97220.19;18289477;32;20053;-56
2023/08/27 06:47:36;;;;;;;4.35;1.73;;;;;;;16.47;100.00;97215.38;18302566;32;20413;-56
2023/08/27 06:57:40;;;;;;;2.65;1.30;;;;;;;16.55;100.00;97250.09;18302417;32;20058;-55
2023/08/27 07:07:44;;;;;;;2.23;1.03;;;;;;;16.49;100.00;97258.75;18300964;32;20077;-56
2023/08/27 07:17:47;;;;;;;2.10;1.30;;;;;;;16.48;100.00;97274.31;18301117;32;20145;-56
2023/08/27 07:27:51;;;;;;;0.90;0.70;;;;;;;16.57;100.00;97266.16;18301025;32;20373;-56
2023/08/27 07:37:58;;;;;;;2.55;0.95;;;;;;;16.68;100.00;97280.31;18286497;32;20105;-57
2023/08/27 07:48:06;;;;;;;2.35;1.27;;;;;;;16.79;100.00;97287.03;18299796;32;20069;-56
2023/08/27 07:58:14;;;;;;;1.50;1.05;;;;;;;16.94;100.00;97289.31;18299240;32;20081;-56
2023/08/27 08:08:18;;;;;;;5.72;1.10;;;;;;;16.96;100.00;97299.12;18299063;32;20109;-56
2023/08/27 08:18:22;;;;;;;1.93;0.97;;;;;;;17.06;100.00;97317.91;18297931;32;20099;-56
2023/08/27 08:28:26;;;;;;;1.80;1.20;;;;;;;17.29;100.00;97302.16;18297516;32;20058;-55
2023/08/27 08:38:30;;;;;;;3.62;1.37;;;;;;;17.58;100.00;97282.34;18297220;32;20471;-55
2023/08/27 08:48:47;;;;;;;3.27;1.03;;;;;;;17.73;100.00;97274.75;18283041;32;20069;-56
2023/08/27 08:58:57;;;;;;;3.25;1.25;;;;;;;17.76;100.00;97279.53;18284005;32;20088;-56
2023/08/27 09:09:01;;;;;;;0.95;0.73;;;;;;;18.01;100.00;97293.50;18282341;32;20086;-57
2023/08/27 09:19:04;;;;;;;1.98;1.12;;;;;;;18.22;100.00;97282.63;18281499;32;20093;-57
2023/08/27 09:29:11;;;;;;;1.33;0.90;;;;;;;18.27;100.00;97291.44;18294366;32;20062;-57
2023/08/27 09:39:15;;;;;;;1.87;1.00;;;;;;;18.49;100.00;97283.31;18294247;32;20055;-57
2023/08/27 09:49:23;;;;;;;1.73;1.07;;;;;;;18.52;100.00;97293.59;18280343;32;20433;-56
2023/08/27 09:59:30;;;;;;;1.80;0.90;;;;;;;18.57;100.00;97299.66;18293894;32;20378;-56
2023/08/27 10:09:35;;;;;;;1.75;1.23;;;;;;;18.77;100.00;97294.53;18293188;32;20062;-56
2023/08/27 10:19:39;;;;;;;1.30;1.08;;;;;;;18.99;100.00;97300.84;18279344;32;20050;-56
2023/08/27 10:29:43;;;;;;;1.45;1.20;;;;;;;19.11;100.00;97287.22;18292587;32;20072;-56
2023/08/27 10:39:48;;;;;;;1.80;1.37;;;;;;;19.10;100.00;97277.38;18295530;32;20106;-57
2023/08/27 10:49:52;;;;;;;2.30;1.42;;;;;;;19.17;100.00;97274.94;18302498;32;20049;-56
2023/08/27 11:00:12;;;;;;;1.35;1.10;;;;;;;19.05;100.00;97277.59;18302301;32;20568;-57
2023/08/27 11:10:17;;;;;;;2.50;1.60;;;;;;;19.04;100.00;97276.00;18301763;32;20101;-56
2023/08/27 11:20:28;;;;;;;4.37;1.58;;;;;;;18.92;100.00;97280.25;18301060;32;20393;-56
2023/08/27 11:30:31;;;;;;;4.57;1.67;;;;;;;18.99;100.00;97273.47;18287753;32;20072;-57
2023/08/27 11:40:35;;;;;;;2.85;1.73;;;;;;;19.07;100.00;97275.31;18299912;32;20069;-56
2023/08/27 11:50:40;;;;;;;2.67;1.87;;;;;;;19.16;100.00;97265.09;18299556;32;20122;-57
2023/08/27 12:00:44;;;;;;;2.20;1.75;;;;;;;19.30;100.00;97259.31;18299591;32;20386;-57
2023/08/27 12:10:49;;;;;;;3.35;1.85;;;;;;;19.33;100.00;97302.50;18299117;32;20414;-57
2023/08/27 12:20:51;;;;;;;2.92;1.65;;;;;;;19.29;100.00;97298.81;18284466;32;20083;-57
2023/08/27 12:30:59;;;;;;;2.50;2.00;;;;;;;19.24;100.00;97324.50;18297067;32;20106;-57
2023/08/27 12:41:02;;;;;;;3.33;1.70;;;;;;;19.16;100.00;97310.84;18283463;32;20069;-56
2023/08/27 12:51:04;;;;;;;2.75;1.55;;;;;;;19.37;100.00;97305.38;18296630;32;20080;-57
2023/08/27 13:01:07;;;;;;;2.67;1.30;;;;;;;19.59;100.00;97295.97;18295823;32;20085;-57
2023/08/27 13:11:10;;;;;;;3.28;1.55;;;;;;;19.57;100.00;97312.75;18282111;32;20050;-56
2023/08/27 13:21:13;;;;;;;1.30;1.20;;;;;;;19.55;100.00;97301.31;18295208;32;20381;-57
2023/08/27 13:31:16;;;;;;;1.27;1.00;;;;;;;19.74;100.00;97300.78;18294997;32;20162;-57
2023/08/27 13:41:19;;;;;;;2.60;1.40;;;;;;;19.72;100.00;97294.03;18230215;32;20110;-56
2023/08/27 13:51:22;;;;;;;1.60;1.45;;;;;;;19.56;100.00;97319.38;18230269;32;20042;-56
2023/08/27 14:01:25;;;;;;;1.50;1.27;;;;;;;19.15;100.00;97320.25;18231170;32;20074;-56
2023/08/27 14:11:27;;;;;;;2.27;1.23;;;;;;;18.86;100.00;97319.94;18230886;32;20442;-56
2023/08/27 14:21:30;;;;;;;2.87;1.50;;;;;;;18.65;100.00;97321.84;18239250;32;20511;-56
2023/08/27 14:31:35;;;;;;;1.55;1.35;;;;;;;18.47;100.00;97316.47;18238972;32;20058;-57
2023/08/27 14:41:39;;;;;;;1.98;1.20;;;;;;;18.32;100.00;97317.81;18297178;32;20110;-56
2023/08/27 14:51:42;;;;;;;;;;;;;;;18.35;100.00;97330.88;18302811;32;20461;-56
2023/08/27 15:01:44;;;;;;;8.20;5.55;;;;;;;18.31;100.00;97335.41;18276025;32;19958;-56
2023/08/27 15:11:47;;;;;;;11.77;7.00;;;;;;;18.23;100.00;97326.06;18287525;32;20058;-57
2023/08/27 15:21:50;;;;;;;2.17;1.77;;;;;;;18.39;100.00;97347.41;18301398;32;20068;-57
2023/08/27 15:31:52;;;;;;;1.40;0.85;;;;;;;18.40;100.00;97352.56;18286591;32;20050;-57
2023/08/27 15:41:55;;;;;;;1.20;0.80;;;;;;;18.44;100.00;97358.19;18300023;32;20437;-56
2023/08/27 15:51:59;;;;;;;3.40;0.80;;;;;;;18.26;100.00;97369.19;18299484;32;20062;-56
2023/08/27 16:02:02;;;;;;;2.15;0.90;;;;;;;18.04;100.00;97378.44;18299281;32;20050;-57
2023/08/27 16:12:05;;;;;;;1.83;0.62;;;;;;;17.90;100.00;97392.28;18298380;32;20434;-57
2023/08/27 16:22:08;;;;;;;2.43;0.50;;;;;;;17.84;100.00;97390.06;18298536;32;20092;-57
2023/08/27 16:32:11;;;;;;;0.97;0.50;;;;;;;17.78;100.00;97381.22;18297775;32;20076;-57
2023/08/27 16:42:14;;;;;;;1.35;0.62;;;;;;;17.67;100.00;97391.69;18219406;32;20058;-56
2023/08/27 16:52:17;;;;;;;0.90;0.60;;;;;;;17.58;100.00;97386.25;18234037;32;20453;-57
2023/08/27 17:02:20;;;;;;;1.58;0.90;;;;;;;17.49;100.00;97385.44;18232458;32;20114;-56
2023/08/27 17:12:22;;;;;;;1.12;0.68;;;;;;;17.44;100.00;97382.84;18233166;32;20042;-56
2023/08/27 17:22:25;;;;;;;2.47;0.40;;;;;;;17.31;100.00;97368.25;18231728;32;20094;-57
2023/08/27 17:32:28;;;;;;;1.52;0.85;;;;;;;17.20;100.00;97377.88;18232419;32;20050;-56
2023/08/27 17:42:31;;;;;;;3.43;0.90;;;;;;;17.18;100.00;97396.50;18230581;32;20050;-57
2023/08/27 17:52:33;;;;;;;2.78;1.10;;;;;;;17.10;100.00;97412.59;18238248;32;20376;-57
2023/08/27 18:02:36;;;;;;;5.57;1.30;;;;;;;16.92;100.00;97411.75;18241683;32;20131;-56
2023/08/27 18:12:39;;;;;;;3.97;1.30;;;;;;;16.78;100.00;97428.19;18241260;32;20054;-56
2023/08/27 18:22:42;;;;;;;1.97;1.23;;;;;;;16.70;100.00;97431.72;18240854;32;20058;-56
2023/08/27 18:32:45;;;;;;;3.92;1.10;;;;;;;16.65;100.00;97440.06;18227810;32;20422;-56
2023/08/27 18:42:48;;;;;;;3.00;1.30;;;;;;;16.60;100.00;97453.84;18303306;32;20053;-57
2023/08/27 18:52:51;;;;;;;2.90;1.00;;;;;;;16.52;100.00;97479.97;18302492;32;20486;-56
2023/08/27 19:02:54;;;;;;;1.85;0.95;;;;;;;16.42;100.00;97491.97;18301443;32;20080;-56
2023/08/27 19:12:56;;;;;;;2.08;0.88;;;;;;;16.32;100.00;97505.06;18301770;32;20105;-57
2023/08/27 19:22:59;;;;;;;5.95;0.85;;;;;;;16.24;100.00;97512.88;18287237;32;20469;-56
2023/08/27 19:33:02;;;;;;;2.05;0.80;;;;;;;16.14;100.00;97526.75;18300413;32;20050;-56
2023/08/27 19:43:04;;;;;;;1.33;0.73;;;;;;;16.02;100.00;97537.41;18300362;32;20117;-56
2023/08/27 19:53:08;;;;;;;4.50;1.00;;;;;;;15.93;100.00;97532.69;18299440;32;20121;-57
2023/08/27 20:03:12;;;;;;;4.10;0.80;;;;;;;15.91;100.00;97531.41;18299325;32;20354;-56
2023/08/27 20:13:15;;;;;;;3.30;0.70;;;;;;;15.90;100.00;97525.13;18298921;32;20446;-57
2023/08/27 20:23:18;;;;;;;5.80;1.10;;;;;;;15.86;100.00;97520.62;18284551;32;20076;-56
2023/08/27 20:33:22;;;;;;;1.70;0.90;;;;;;;15.83;100.00;97522.03;18297336;32;20073;-56
2023/08/27 20:43:24;;;;;;;1.87;0.93;;;;;;;15.77;100.00;97515.06;18297454;32;20062;-57
2023/08/27 20:53:28;;;;;;;4.55;1.12;;;;;;;15.71;100.00;97521.75;18282603;32;20084;-56
2023/08/27 21:03:30;;;;;;;1.12;0.73;;;;;;;15.60;100.00;97515.72;18283240;32;20055;-57
2023/08/27 21:13:33;;;;;;;3.67;1.10;;;;;;;15.57;100.00;97508.16;18296152;32;20365;-56
2023/08/27 21:23:36;;;;;;;5.30;0.80;;;;;;;15.52;100.00;97500.09;18268412;32;20070;-56
2023/08/27 21:33:39;;;;;;;6.50;1.17;;;;;;;15.52;100.00;97506.34;18280792;32;20084;-56
2023/08/27 21:43:41;;;;;;;3.33;0.98;;;;;;;15.52;100.00;97509.06;18294409;32;20053;-56
2023/08/27 21:53:43;;;;;;;1.65;0.95;;;;;;;15.45;100.00;97508.69;18293982;32;20102;-56
2023/08/27 22:03:47;;;;;;;5.32;0.95;;;;;;;15.42;100.00;97520.19;18280356;32;20065;-56
2023/08/27 22:13:50;;;;;;;;;;;;;;;15.31;100.00;97510.63;18280118;32;20042;-56
2023/08/27 22:23:52;;;;;;;1.33;0.65;;;;;;;15.29;100.00;97531.91;18279381;32;19973;-57
2023/08/27 22:33:56;;;;;;;2.92;0.93;;;;;;;15.29;100.00;97504.66;18294123;32;20047;-56
2023/08/27 22:43:58;;;;;;;3.92;0.90;;;;;;;15.16;100.00;97492.69;18289774;32;20073;-57
2023/08/27 22:54:00;;;;;;;3.28;1.02;;;;;;;15.23;100.00;97482.97;18302514;32;20110;-57
2023/08/27 23:04:03;;;;;;;5.55;0.98;;;;;;;15.20;100.00;97469.97;18302340;32;20054;-57
2023/08/27 23:14:06;;;;;;;4.50;1.00;;;;;;;15.22;100.00;97489.56;18301971;32;20058;-57
2023/08/27 23:24:08;;;;;;;1.95;0.60;;;;;;;15.10;100.00;97458.50;18301265;32;20070;-57
2023/08/27 23:34:11;;;;;;;1.52;0.77;;;;;;;14.97;100.00;97425.53;18286727;32;20076;-57
2023/08/27 23:44:13;;;;;;;2.53;0.95;;;;;;;15.02;100.00;97391.94;18300015;32;20054;-56
2023/08/27 23:54:16;;;;;;;2.37;0.90;;;;;;;15.00;100.00;97392.25;18299719;32;20054;-57
